Terminal Aerodrome Forecast
Issued by NWS

Home | Current Version | Previous Version | Text Only | Print | Product List | Glossary On
Versions: 1 2 3 4 5 6 7 8 9 10 11 12 13 14 15 16 17
000
FTUS45 KGJT 232101 AAB
TAFMTJ
TAF AMD
KMTJ 232101Z 2321/2418 25012KT P6SM -SHRA VCTS BKN040 OVC070CB
     FM240000 25012G20KT 5SM -RA BKN035 OVC050
     FM240300 18006KT 4SM -RA OVC025
     FM240800 27010KT 4SM -SHRASN OVC025
     FM241200 28015G25KT P6SM BKN050
     FM241500 29008G15KT P6SM SCT080=

USA.gov is the U.S. government's official web portal to all federal, state and local government web resources and services.